CloseHelpProblem

Lions Burley Spudman

07/28/07


PlBibName RepresentingAge Division Interval TimeTime BackTotal Time
1703Greg TAYLERHEBER CITY UT USA06 M 40 - 4400:13:36.790+00:00:00.0000:13:36.790
2628Jeff DOLLOFF-HOLTWEST VALLEY CITY UT USA06 M 40 - 4400:13:58.130+00:00:21.3400:13:58.130
3621Michael MAMALESSALT LAKE CITY UT USA06 M 40 - 4400:15:53.410+00:02:16.6200:15:53.410
4678Karl LINCOLNSANDY UT USA06 M 40 - 4400:16:10.160+00:02:33.3700:16:10.160
5675Rex SHUPEKAYSVILLE UT USA06 M 40 - 4400:16:22.840+00:02:46.0500:16:22.840
6699Bradley WILLIAMSTWIN FALLS ID USA06 M 40 - 4400:16:48.670+00:03:11.8800:16:48.670
7736Tom STOCKHAMHOLLADAY UT USA06 M 40 - 4400:16:55.780+00:03:18.9900:16:55.780
8666Rich AGRENSOUTH JORDAN UT USA06 M 40 - 4400:17:09.390+00:03:32.6000:17:09.390
9683Robert TIMPANYRIGBY ID USA06 M 40 - 4400:17:16.540+00:03:39.7500:17:16.540
10676Claes HORNSTRANDTHOUSAND OAKS CA USA06 M 40 - 4400:17:28.990+00:03:52.2000:17:28.990
11709Daniel HARPERPROVO UT USA06 M 40 - 4400:17:37.210+00:04:00.4200:17:37.210
12685John KIMBALLSALT LAKE CITY UT USA06 M 40 - 4400:17:55.680+00:04:18.8900:17:55.680
13734Bart CONRADJACKSON WY USA06 M 40 - 4400:17:57.720+00:04:20.9300:17:57.720
14643Dan ALDREDBOISE ID USA06 M 40 - 4400:18:14.980+00:04:38.1900:18:14.980
15640Miles MCCRACKENALPINE UT USA06 M 40 - 4400:18:15.580+00:04:38.7900:18:15.580
16691Lonnie HUNTERDRAPER UT USA06 M 40 - 4400:18:22.750+00:04:45.9600:18:22.750
17664Chris HARDSALT LAKE CITY UT USA06 M 40 - 4400:18:25.370+00:04:48.5800:18:25.370
18663Randy SCOTTSOUTH JORDAN UT USA06 M 40 - 4400:18:27.360+00:04:50.5700:18:27.360
19631Steven BERRYOREM UT USA06 M 40 - 4400:18:36.840+00:05:00.0500:18:36.840
20711Brad MERTZSPRINGVILLE UT USA06 M 40 - 4400:18:51.560+00:05:14.7700:18:51.560
21644Craig WARDSALT LAKE CITY SD USA06 M 40 - 4400:18:54.970+00:05:18.1800:18:54.970
22656Adam DEWAALSLC UT USA06 M 40 - 4400:18:56.140+00:05:19.3500:18:56.140
23674Paul KORTHWEST JORDAN UT USA06 M 40 - 4400:18:59.220+00:05:22.4300:18:59.220
24681Dirk JEFFSDRAPER UT USA06 M 40 - 4400:19:02.510+00:05:25.7200:19:02.510
25637Dave ASHBYSPRINGVILLE UT USA06 M 40 - 4400:19:04.370+00:05:27.5800:19:04.370
26682Dale CRANNEYMIDWAY UT USA06 M 40 - 4400:19:10.100+00:05:33.3100:19:10.100
27712Jeff THOMASDRAPER UT USA06 M 40 - 4400:19:12.850+00:05:36.0600:19:12.850
28743David COOKPARK CITY UT USA06 M 40 - 4400:19:19.020+00:05:42.2300:19:19.020
29739Temp PATTERSONBURLEY ID USA06 M 40 - 4400:19:19.190+00:05:42.4000:19:19.190
30649Scott STEINSALT LAKE CITY UT USA06 M 40 - 4400:19:20.560+00:05:43.7700:19:20.560
31651Mahana FISHERBLANDING UT USA06 M 40 - 4400:19:24.220+00:05:47.4300:19:24.220
32677Brian HALLBOUNTIFUL UT USA06 M 40 - 4400:19:29.120+00:05:52.3300:19:29.120
33670Phillip GOOLDDRAPER UT USA06 M 40 - 4400:19:31.820+00:05:55.0300:19:31.820
34715Mick DAINESROY UT USA06 M 40 - 4400:19:33.300+00:05:56.5100:19:33.300
35710William TINGEYKAYSVILLE UT USA06 M 40 - 4400:19:36.480+00:05:59.6900:19:36.480
36692Doug EVANSKAYSVILLE UT USA06 M 40 - 4400:19:37.070+00:06:00.2800:19:37.070
37684Coray TATEOREM UT USA06 M 40 - 4400:19:42.170+00:06:05.3800:19:42.170
38665Bob ZANETTIPARK CITY UT USA06 M 40 - 4400:19:42.480+00:06:05.6900:19:42.480
39746Adam HOWARDLAYTON UT USA06 M 40 - 4400:19:46.650+00:06:09.8600:19:46.650
40629Robert PODGORNEYIDAHO FALLS ID USA06 M 40 - 4400:19:47.770+00:06:10.9800:19:47.770
41737Ian SPENCERRIVERTON UT USA06 M 40 - 4400:19:48.100+00:06:11.3100:19:48.100
42702Carl VAN GILSST. GEORGE UT USA06 M 40 - 4400:19:55.960+00:06:19.1700:19:55.960
43633Mike GARNERDECLO ID USA06 M 40 - 4400:20:05.880+00:06:29.0900:20:05.880
44694Jon MOENEW YORK NY USA06 M 40 - 4400:20:11.260+00:06:34.4700:20:11.260
45654Mark ROYLANCEFRUIT HEIGHTS UT USA06 M 40 - 4400:20:19.360+00:06:42.5700:20:19.360
46623Cody LASLEYSYRACUSE UT USA06 M 40 - 4400:20:28.730+00:06:51.9400:20:28.730
47630Scott GLENNSTANSBURY PARK UT USA06 M 40 - 4400:20:29.190+00:06:52.4000:20:29.190
48714Bret REICHSANDY UT USA06 M 40 - 4400:20:29.980+00:06:53.1900:20:29.980
49641Dave SHARPSALT LAKE CITY UT USA06 M 40 - 4400:20:31.030+00:06:54.2400:20:31.030
50726Gregg GREERDRAPER UT USA06 M 40 - 4400:20:32.350+00:06:55.5600:20:32.350
51705Joseph MULLINSPOCATELLO ID USA06 M 40 - 4400:20:32.930+00:06:56.1400:20:32.930
52713Brent DIXONSHERWOOD OR USA06 M 40 - 4400:20:36.450+00:06:59.6600:20:36.450
53655Carl PETERSONSANDY UT USA06 M 40 - 4400:20:38.710+00:07:01.9200:20:38.710
54741Glen ALLENBURLEY ID USA06 M 40 - 4400:20:40.280+00:07:03.4900:20:40.280
55632Scott FROGLEYDRAPER UT USA06 M 40 - 4400:20:41.440+00:07:04.6500:20:41.440
56662Jeff CLEGGJEROME ID USA06 M 40 - 4400:20:46.910+00:07:10.1200:20:46.910
57645Richard MATHESONLINDON UT USA06 M 40 - 4400:20:51.810+00:07:15.0200:20:51.810
58679Todd RUSHTONRUPERT ID USA06 M 40 - 4400:20:53.800+00:07:17.0100:20:53.800
59687Todd WATTSST. GEORGE UT USA06 M 40 - 4400:21:17.570+00:07:40.7800:21:17.570
60740Dominic BRIALEHI UT USA06 M 40 - 4400:21:20.090+00:07:43.3000:21:20.090
61642David WARDSPOKANE WA USA06 M 40 - 4400:21:27.000+00:07:50.2100:21:27.000
62698Conrad SMITHSANDY UT USA06 M 40 - 4400:21:30.060+00:07:53.2700:21:30.060
63638Bart HANSONRUPERT ID USA06 M 40 - 4400:21:41.620+00:08:04.8300:21:41.620
64706Kyle HARWARDFARMINGTON UT USA06 M 40 - 4400:21:53.070+00:08:16.2800:21:53.070
65723Dan SORENSENSALT LAKE CITY UT USA06 M 40 - 4400:21:55.380+00:08:18.5900:21:55.380
66742Steve OSTLERSALT LAKE CITY UT USA06 M 40 - 4400:21:56.470+00:08:19.6800:21:56.470
67671Nate ALDERSALT LAKE CITY UT USA06 M 40 - 4400:22:02.270+00:08:25.4800:22:02.270
68818Scott ROGERSRUPERT ID USA06 M 40 - 4400:22:25.010+00:08:48.2200:22:25.010
69622Dixon HOLMESPROVO UT USA06 M 40 - 4400:22:29.030+00:08:52.2400:22:29.030
70652Kurt FLYGAREALPINE UT USA06 M 40 - 4400:22:52.750+00:09:15.9600:22:52.750
71672Fred STURGELLHENDERSON CO USA06 M 40 - 4400:23:03.030+00:09:26.2400:23:03.030
72708Gordon GARRETTLAYTON UT USA06 M 40 - 4400:23:08.270+00:09:31.4800:23:08.270
73733Rick MCCORDALPINE UT USA06 M 40 - 4400:23:20.860+00:09:44.0700:23:20.860
74745R THOMPSONSALT LAKE CITY UT USA06 M 40 - 4400:23:21.290+00:09:44.5000:23:21.290
751643Rob ANDRALEHI UT USA06 M 40 - 4400:23:41.960+00:10:05.1700:23:41.960
76735J Lance DOWDLESHERWOOD OR USA06 M 40 - 4400:23:59.150+00:10:22.3600:23:59.150
77636Todd GROLLFARMINGTON UT USA06 M 40 - 4400:24:06.470+00:10:29.6800:24:06.470
78669Alan JOHNSONCEDAR HILLS UT USA06 M 40 - 4400:24:12.580+00:10:35.7900:24:12.580
79624Robert BAKERLINDON UT USA06 M 40 - 4400:24:50.240+00:11:13.4500:24:50.240
80704Scott MERVINSALT LAKE CITY UT USA06 M 40 - 4400:24:55.370+00:11:18.5800:24:55.370
81660Glen GUYMONROSEVILLE CA USA06 M 40 - 4400:24:57.650+00:11:20.8600:24:57.650
82722Roger TAYLORLEHI UT USA06 M 40 - 4400:25:10.920+00:11:34.1300:25:10.920
83625Roger THOMSALT LAKE CITY UT USA06 M 40 - 4400:25:15.460+00:11:38.6700:25:15.460
84732Todd BARNEYALPINE UT USA06 M 40 - 4400:25:19.980+00:11:43.1900:25:19.980
85725Thomas LINDSEYSPRINGVILLE UT USA06 M 40 - 4400:25:35.340+00:11:58.5500:25:35.340
86635John MORGANOREM UT USA06 M 40 - 4400:25:36.080+00:11:59.2900:25:36.080
87648Jared DOWDLECHANDLER AZ USA06 M 40 - 4400:25:46.120+00:12:09.3300:25:46.120
88696Roger DAYTONOREM UT USA06 M 40 - 4400:25:48.810+00:12:12.0200:25:48.810
89659Curtis EVANSSOUTH JORDAN UT USA06 M 40 - 4400:27:27.710+00:13:50.9200:27:27.710
901640Tom KITCHENPLEASANT GROVE UT USA06 M 40 - 4400:29:01.820+00:15:25.0300:29:01.820
91730Kent HANSENSANDY UT USA06 M 40 - 4400:53:57.190+00:40:20.4000:53:57.190